Time;durP1;ratioP1;P1;durP2;ratioP2;P2;SDS_P1;SDS_P2;PMS_P1;PMS_P2;Temp;Humidity;BMP_temperature;BMP_pressure;BME280_temperature;BME280_humidity;BME280_pressure;Samples;Min_cycle;Max_cycle;Signal;HPM_P1;HPM_P2
2022/05/08 00:01:10;;;;;;;11.20;4.63;;;7.90;99.90;;;;;;2251972;63;20186;-68
2022/05/08 00:03:47;;;;;;;10.98;4.90;;;7.80;99.90;;;;;;2248919;63;20367;-70
2022/05/08 00:06:24;;;;;;;14.93;4.07;;;7.80;99.90;;;;;;2253746;63;20329;-69
2022/05/08 00:09:00;;;;;;;14.05;4.80;;;7.80;99.90;;;;;;2251239;63;20206;-69
2022/05/08 00:11:38;;;;;;;19.42;5.53;;;7.70;99.90;;;;;;2253401;63;20201;-69
2022/05/08 00:14:18;;;;;;;13.20;4.43;;;7.70;99.90;;;;;;2253679;63;20228;-68
2022/05/08 00:16:55;;;;;;;13.88;4.47;;;7.70;99.90;;;;;;2253398;63;20169;-69
2022/05/08 00:19:35;;;;;;;9.80;4.80;;;7.70;99.90;;;;;;2252520;63;20166;-68
2022/05/08 00:22:13;;;;;;;16.75;4.70;;;7.60;99.90;;;;;;2252422;63;20238;-68
2022/05/08 00:24:59;;;;;;;20.73;4.93;;;7.60;99.90;;;;;;2253601;63;20321;-69
2022/05/08 00:27:36;;;;;;;14.35;4.93;;;7.60;99.90;;;;;;2251376;63;20198;-68
2022/05/08 00:30:14;;;;;;;13.25;4.60;;;7.60;99.90;;;;;;2252884;63;20192;-69
2022/05/08 00:32:54;;;;;;;15.10;4.43;;;7.60;99.90;;;;;;2254088;63;20172;-68
2022/05/08 00:35:31;;;;;;;17.60;4.78;;;7.60;99.90;;;;;;2253674;63;20176;-68
2022/05/08 00:38:08;;;;;;;13.90;4.45;;;7.60;99.90;;;;;;2253607;63;20741;-69
2022/05/08 00:40:46;;;;;;;17.48;4.05;;;7.60;99.90;;;;;;2250651;63;20303;-69
2022/05/08 00:43:36;;;;;;;23.23;4.45;;;7.50;99.90;;;;;;2253789;63;20202;-69
2022/05/08 00:46:14;;;;;;;14.45;4.85;;;7.50;99.90;;;;;;2250598;63;20655;-70
2022/05/08 00:48:55;;;;;;;17.90;3.80;;;7.40;99.90;;;;;;2252618;63;20243;-69
2022/05/08 00:51:47;;;;;;;10.95;4.13;;;7.40;99.90;;;;;;2253446;63;20349;-69
2022/05/08 00:54:27;;;;;;;14.73;4.30;;;7.40;99.90;;;;;;2253297;63;20688;-68
2022/05/08 00:57:10;;;;;;;10.95;3.50;;;7.40;99.90;;;;;;2253720;63;20196;-69
2022/05/08 00:59:47;;;;;;;9.00;4.38;;;7.40;99.90;;;;;;2250134;63;20309;-69
2022/05/08 01:02:28;;;;;;;16.00;4.57;;;7.30;99.90;;;;;;2253052;63;20677;-70
2022/05/08 01:05:06;;;;;;;11.05;3.72;;;7.30;99.90;;;;;;2253918;63;20182;-68
2022/05/08 01:07:43;;;;;;;12.95;3.88;;;7.30;99.90;;;;;;2253385;63;20635;-67
2022/05/08 01:10:19;;;;;;;11.07;3.75;;;7.20;99.90;;;;;;2253419;63;20157;-69
2022/05/08 01:12:57;;;;;;;11.23;4.13;;;7.20;99.90;;;;;;2253273;63;20186;-68
2022/05/08 01:16:00;;;;;;;14.63;3.83;;;7.20;99.90;;;;;;2253055;63;20192;-67
2022/05/08 01:18:38;;;;;;;12.32;3.78;;;7.10;99.90;;;;;;2250541;63;20241;-69
2022/05/08 01:21:39;;;;;;;10.82;4.22;;;7.10;99.90;;;;;;2253181;63;20216;-68
2022/05/08 01:24:22;;;;;;;15.15;4.10;;;7.10;99.90;;;;;;2252936;63;20157;-69
2022/05/08 01:27:01;;;;;;;12.00;4.13;;;7.00;99.90;;;;;;2253193;63;20259;-68
2022/05/08 01:29:47;;;;;;;14.98;4.10;;;7.00;99.90;;;;;;2252387;63;20257;-68
2022/05/08 01:32:26;;;;;;;11.13;4.05;;;6.90;99.90;;;;;;2252766;63;20180;-68
2022/05/08 01:35:04;;;;;;;13.00;4.57;;;6.90;99.90;;;;;;2252836;63;20693;-68
2022/05/08 01:37:45;;;;;;;12.05;3.78;;;6.90;99.90;;;;;;2252830;63;20340;-69
2022/05/08 01:40:24;;;;;;;13.70;4.28;;;6.80;99.90;;;;;;2248591;63;20357;-68
2022/05/08 01:43:01;;;;;;;10.88;3.80;;;6.80;99.90;;;;;;2253075;63;20160;-68
2022/05/08 01:45:38;;;;;;;11.80;3.50;;;6.80;99.90;;;;;;2248116;63;20162;-69
2022/05/08 01:48:23;;;;;;;7.72;3.60;;;6.80;99.90;;;;;;2251650;63;20308;-69
2022/05/08 01:51:01;;;;;;;10.52;4.30;;;6.80;99.90;;;;;;2252933;63;20381;-68
2022/05/08 01:53:39;;;;;;;13.82;3.65;;;6.80;99.90;;;;;;2252055;63;20573;-69
2022/05/08 01:56:15;;;;;;;10.88;3.25;;;6.70;99.90;;;;;;2253203;63;20655;-68
2022/05/08 01:58:52;;;;;;;13.10;3.78;;;6.70;99.90;;;;;;2252762;63;20264;-68
2022/05/08 02:01:29;;;;;;;10.25;3.90;;;6.70;99.90;;;;;;2252224;63;20206;-68
2022/05/08 02:04:06;;;;;;;11.10;3.53;;;6.60;99.90;;;;;;2250514;63;20690;-68
2022/05/08 02:06:44;;;;;;;10.23;3.47;;;6.60;99.90;;;;;;2253075;63;20172;-69
2022/05/08 02:09:24;;;;;;;15.65;4.50;;;6.60;99.90;;;;;;2252439;63;20186;-68
2022/05/08 02:12:02;;;;;;;15.65;4.07;;;6.60;99.90;;;;;;2253097;63;20283;-68
2022/05/08 02:14:46;;;;;;;20.60;4.85;;;6.60;99.90;;;;;;2253426;63;20199;-68
2022/05/08 02:17:26;;;;;;;14.95;4.97;;;6.50;99.90;;;;;;2251648;63;20245;-67
2022/05/08 02:20:07;;;;;;;10.82;3.65;;;6.60;99.90;;;;;;2252873;63;20165;-68
2022/05/08 02:22:44;;;;;;;7.47;3.13;;;6.50;99.90;;;;;;2249943;63;20188;-69
2022/05/08 02:25:21;;;;;;;14.82;3.63;;;6.50;99.90;;;;;;2252722;63;20182;-69
2022/05/08 02:28:00;;;;;;;13.85;3.75;;;6.40;99.90;;;;;;2253303;63;20216;-68
2022/05/08 02:30:41;;;;;;;13.57;3.30;;;6.50;99.90;;;;;;2252257;63;20235;-68
2022/05/08 02:33:22;;;;;;;14.45;3.70;;;6.40;99.90;;;;;;2252530;63;20242;-68
2022/05/08 02:36:01;;;;;;;14.68;3.95;;;6.40;99.90;;;;;;2251838;63;20304;-68
2022/05/08 02:38:39;;;;;;;10.40;3.47;;;6.40;99.90;;;;;;2253145;63;20225;-69
2022/05/08 02:41:23;;;;;;;;;;;6.40;99.90;;;;;;2254566;63;20687;-68
2022/05/08 02:44:00;;;;;;;12.82;4.68;;;6.40;99.90;;;;;;2251377;63;20061;-69
2022/05/08 02:46:36;;;;;;;16.15;3.78;;;6.30;99.90;;;;;;2251801;63;20169;-68
2022/05/08 02:49:13;;;;;;;11.95;3.80;;;6.30;99.90;;;;;;2253874;63;20161;-68
2022/05/08 02:51:51;;;;;;;8.15;3.47;;;6.30;99.90;;;;;;2253732;63;20390;-68
2022/05/08 02:54:30;;;;;;;12.75;3.90;;;6.20;99.90;;;;;;2254057;63;20245;-69
2022/05/08 03:00:07;;;;;;;8.33;4.10;;;6.20;99.90;;;;;;2253547;63;20295;-69
2022/05/08 03:02:46;;;;;;;8.95;4.15;;;6.20;99.90;;;;;;2252805;63;20396;-69
2022/05/08 03:05:25;;;;;;;9.88;3.70;;;6.10;99.90;;;;;;2252307;63;20169;-70
2022/05/08 03:08:03;;;;;;;14.88;4.10;;;6.20;99.90;;;;;;2253653;63;20222;-69
2022/05/08 03:13:42;;;;;;;9.30;3.58;;;6.10;99.90;;;;;;2253022;63;20164;-67
2022/05/08 03:16:22;;;;;;;15.48;4.72;;;6.10;99.90;;;;;;2252589;63;20638;-68
2022/05/08 03:19:04;;;;;;;10.27;4.10;;;6.20;99.90;;;;;;2254030;63;20190;-69
2022/05/08 03:21:51;;;;;;;11.65;4.25;;;6.10;99.90;;;;;;2250513;63;20243;-68
2022/05/08 03:24:31;;;;;;;11.50;4.00;;;6.10;99.90;;;;;;2253527;63;20255;-68
2022/05/08 03:27:08;;;;;;;11.68;3.58;;;6.10;99.90;;;;;;2251248;63;20657;-70
2022/05/08 03:29:45;;;;;;;9.10;3.97;;;6.40;99.90;;;;;;2253257;63;20172;-70
2022/05/08 03:32:26;;;;;;;14.05;3.78;;;6.10;99.90;;;;;;2251158;63;20168;-69
2022/05/08 03:35:05;;;;;;;12.75;3.40;;;6.10;99.90;;;;;;2251052;63;20190;-68
2022/05/08 03:37:43;;;;;;;10.98;3.80;;;6.00;99.90;;;;;;2254103;63;20186;-70
2022/05/08 03:40:29;;;;;;;10.10;3.80;;;6.00;99.90;;;;;;2254435;63;20194;-68
2022/05/08 03:43:09;;;;;;;9.65;3.60;;;6.00;99.90;;;;;;2253042;63;20172;-68
2022/05/08 03:45:48;;;;;;;10.98;4.10;;;6.00;99.90;;;;;;2253922;63;20189;-68
2022/05/08 03:48:27;;;;;;;10.15;3.22;;;6.00;99.90;;;;;;2254219;63;20813;-68
2022/05/08 03:51:13;;;;;;;7.72;3.30;;;6.00;99.90;;;;;;2253194;63;20758;-69
2022/05/08 03:53:52;;;;;;;7.57;3.22;;;6.00;99.90;;;;;;2251949;63;20236;-69
2022/05/08 03:56:30;;;;;;;7.38;3.08;;;6.00;99.90;;;;;;2253496;63;20190;-68
2022/05/08 03:59:09;;;;;;;8.30;3.47;;;5.90;99.90;;;;;;2253882;63;20185;-69
2022/05/08 04:01:48;;;;;;;7.50;3.60;;;5.90;99.90;;;;;;2252856;63;20208;-69
2022/05/08 04:04:28;;;;;;;11.80;3.55;;;5.90;99.90;;;;;;2253899;63;20212;-68
2022/05/08 04:07:09;;;;;;;7.97;3.05;;;5.90;99.90;;;;;;2252519;63;20811;-69
2022/05/08 04:09:49;;;;;;;5.20;2.65;;;5.40;99.90;;;;;;2253244;63;20176;-68
2022/05/08 04:12:29;;;;;;;9.75;2.90;;;5.90;99.90;;;;;;2253745;63;20199;-69
2022/05/08 04:18:09;;;;;;;9.07;3.38;;;5.90;99.90;;;;;;2246007;63;20748;-69
2022/05/08 04:20:49;;;;;;;7.18;2.80;;;6.00;99.90;;;;;;2253513;63;20226;-68
2022/05/08 04:26:20;;;;;;;9.20;2.78;;;6.00;99.90;;;;;;2252781;63;20188;-68
2022/05/08 04:28:59;;;;;;;8.70;2.85;;;6.00;99.90;;;;;;2250373;63;20253;-68
2022/05/08 04:31:39;;;;;;;12.18;3.00;;;6.00;99.90;;;;;;2253463;63;20281;-68
2022/05/08 04:34:18;;;;;;;6.72;3.05;;;6.00;99.90;;;;;;2253126;63;20561;-69
2022/05/08 04:36:55;;;;;;;10.13;3.15;;;6.00;99.90;;;;;;2253330;63;20293;-69
2022/05/08 04:39:32;;;;;;;9.20;2.90;;;6.00;99.90;;;;;;2252871;63;20196;-68
2022/05/08 04:42:10;;;;;;;6.47;2.22;;;6.10;99.90;;;;;;2252992;63;20169;-68
2022/05/08 04:44:51;;;;;;;6.43;2.40;;;6.10;99.90;;;;;;2252319;63;20182;-68
2022/05/08 04:47:30;;;;;;;9.82;3.60;;;6.20;99.90;;;;;;2253183;63;20568;-69
2022/05/08 04:50:08;;;;;;;5.90;2.65;;;6.20;99.90;;;;;;2252850;63;20189;-68
2022/05/08 04:52:46;;;;;;;4.88;2.05;;;6.30;99.90;;;;;;2252385;63;20244;-68
2022/05/08 04:55:25;;;;;;;9.10;3.13;;;6.40;99.90;;;;;;2251444;63;20687;-69
2022/05/08 04:58:02;;;;;;;8.68;3.03;;;6.40;99.90;;;;;;2252849;63;20258;-70
2022/05/08 05:00:38;;;;;;;8.68;2.92;;;6.40;99.90;;;;;;2252809;63;20228;-69
2022/05/08 05:03:15;;;;;;;5.63;2.67;;;6.50;99.90;;;;;;2253109;63;20189;-71
2022/05/08 05:05:53;;;;;;;11.38;2.97;;;6.50;99.90;;;;;;2252549;63;20165;-69
2022/05/08 05:08:37;;;;;;;7.28;3.50;;;6.50;99.90;;;;;;2252993;63;20574;-69
2022/05/08 05:11:16;;;;;;;6.35;2.53;;;6.50;99.90;;;;;;2253101;63;20271;-68
2022/05/08 05:13:53;;;;;;;12.20;2.88;;;6.60;99.90;;;;;;2253363;63;20232;-68
2022/05/08 05:16:29;;;;;;;9.35;2.95;;;6.60;99.90;;;;;;2252571;63;20356;-68
2022/05/08 05:19:07;;;;;;;6.85;2.72;;;6.70;99.90;;;;;;2254125;63;20298;-68
2022/05/08 05:21:48;;;;;;;5.68;2.63;;;6.70;99.90;;;;;;2253222;63;20152;-69
2022/05/08 05:24:30;;;;;;;7.80;3.22;;;6.80;99.90;;;;;;2253466;63;20197;-69
2022/05/08 05:27:09;;;;;;;6.95;3.00;;;6.90;99.90;;;;;;2252378;63;20212;-68
2022/05/08 05:29:47;;;;;;;11.30;2.97;;;7.00;99.90;;;;;;2253718;63;20168;-68
2022/05/08 05:32:26;;;;;;;9.35;2.88;;;7.10;99.90;;;;;;2252297;63;20205;-68
2022/05/08 05:35:06;;;;;;;8.02;2.35;;;7.10;99.90;;;;;;2254038;63;20189;-69
2022/05/08 05:37:44;;;;;;;8.07;2.55;;;7.30;99.90;;;;;;2253402;63;20361;-72
2022/05/08 05:40:25;;;;;;;7.85;2.35;;;7.40;99.90;;;;;;2253398;63;20156;-69
2022/05/08 05:43:06;;;;;;;5.40;2.72;;;7.60;99.90;;;;;;2253578;63;20180;-69
2022/05/08 05:45:45;;;;;;;6.53;2.15;;;7.80;99.90;;;;;;2253842;63;20160;-69
2022/05/08 05:48:22;;;;;;;9.82;2.45;;;8.00;99.90;;;;;;2253440;63;20172;-69
2022/05/08 05:51:00;;;;;;;7.18;2.28;;;8.20;99.90;;;;;;2253186;63;20685;-68
2022/05/08 05:53:43;;;;;;;7.88;2.50;;;8.30;99.90;;;;;;2253911;63;20287;-68
2022/05/08 05:56:22;;;;;;;6.68;2.13;;;8.60;99.90;;;;;;2253176;63;20617;-70
2022/05/08 05:59:00;;;;;;;5.93;2.10;;;8.70;99.90;;;;;;2253332;63;20588;-69
2022/05/08 06:01:39;;;;;;;5.95;1.98;;;8.80;99.90;;;;;;2252914;63;20169;-69
2022/05/08 06:04:17;;;;;;;5.75;2.60;;;8.80;99.90;;;;;;2253743;63;20259;-68
2022/05/08 06:06:56;;;;;;;6.88;2.13;;;8.90;99.90;;;;;;2253568;63;20212;-69
2022/05/08 06:09:33;;;;;;;8.48;2.38;;;9.00;99.90;;;;;;2253056;63;20206;-67
2022/05/08 06:12:10;;;;;;;7.28;2.72;;;9.00;99.90;;;;;;2252731;63;20790;-68
2022/05/08 06:14:48;;;;;;;10.00;2.70;;;9.10;99.90;;;;;;2254001;63;20242;-68
2022/05/08 06:17:27;;;;;;;6.93;1.92;;;9.10;99.90;;;;;;2251923;63;20212;-70
2022/05/08 06:20:05;;;;;;;5.53;1.95;;;9.10;99.90;;;;;;2255054;63;20160;-69
2022/05/08 06:22:42;;;;;;;10.63;2.30;;;9.20;99.90;;;;;;2254642;63;20326;-69
2022/05/08 06:25:24;;;;;;;6.47;2.00;;;9.40;99.90;;;;;;2252003;63;20185;-68
2022/05/08 06:28:01;;;;;;;8.20;1.90;;;9.60;99.90;;;;;;2252401;63;20214;-70
2022/05/08 06:30:38;;;;;;;6.38;2.15;;;9.70;99.90;;;;;;2255040;63;20193;-68
2022/05/08 06:33:15;;;;;;;6.25;1.85;;;9.80;99.90;;;;;;2254441;63;20165;-69
2022/05/08 06:35:54;;;;;;;7.72;2.03;;;9.90;99.90;;;;;;2255073;63;20173;-69
2022/05/08 06:38:30;;;;;;;6.82;2.08;;;10.00;99.90;;;;;;2253685;63;20153;-69
2022/05/08 06:41:08;;;;;;;7.47;2.15;;;10.20;99.70;;;;;;2255006;63;20198;-68
2022/05/08 06:43:44;;;;;;;7.07;2.03;;;10.40;99.30;;;;;;2255648;63;20631;-69
2022/05/08 06:46:21;;;;;;;6.85;1.75;;;10.60;98.60;;;;;;2254731;63;20676;-68
2022/05/08 06:48:58;;;;;;;6.43;1.90;;;10.80;98.30;;;;;;2253714;63;20185;-69
2022/05/08 06:51:35;;;;;;;4.18;1.60;;;10.80;97.80;;;;;;2252866;63;20382;-69
2022/05/08 06:54:32;;;;;;;6.10;2.17;;;10.90;97.20;;;;;;2254165;63;20629;-69
2022/05/08 06:57:08;;;;;;;8.57;2.10;;;10.90;96.80;;;;;;2252417;63;20662;-69
2022/05/08 07:02:45;;;;;;;9.18;2.00;;;11.10;95.70;;;;;;2251632;63;20226;-69
2022/05/08 07:05:28;;;;;;;9.50;2.50;;;11.30;95.20;;;;;;2253471;63;20328;-69
2022/05/08 07:08:05;;;;;;;4.57;1.38;;;11.40;94.80;;;;;;2250658;63;20212;-68
2022/05/08 07:10:42;;;;;;;5.53;1.88;;;11.50;94.70;;;;;;2253250;63;20402;-69
2022/05/08 07:13:25;;;;;;;4.82;2.40;;;11.60;94.40;;;;;;2254524;63;20165;-68
2022/05/08 07:16:03;;;;;;;5.00;1.75;;;11.60;93.90;;;;;;2254690;63;20213;-69
2022/05/08 07:18:41;;;;;;;5.38;1.77;;;11.50;93.30;;;;;;2254508;63;20657;-68
2022/05/08 07:21:22;;;;;;;10.10;2.47;;;11.60;93.20;;;;;;2252162;63;20184;-68
2022/05/08 07:24:04;;;;;;;8.15;2.33;;;11.40;93.00;;;;;;2252689;63;20186;-68
2022/05/08 07:26:41;;;;;;;8.38;1.67;;;11.40;93.00;;;;;;2254206;63;20202;-72
2022/05/08 07:29:19;;;;;;;6.88;2.45;;;11.40;93.00;;;;;;2254327;63;20196;-69
2022/05/08 07:32:01;;;;;;;4.03;2.05;;;11.30;92.80;;;;;;2254632;63;20762;-69
2022/05/08 07:37:41;;;;;;;6.40;1.80;;;11.00;92.50;;;;;;2254274;63;20565;-68
2022/05/08 07:40:21;;;;;;;10.50;2.35;;;10.90;92.60;;;;;;2254602;63;20287;-69
2022/05/08 07:43:03;;;;;;;7.45;1.98;;;10.80;92.80;;;;;;2254069;63;20193;-69
2022/05/08 07:46:02;;;;;;;3.47;1.90;;;10.70;93.00;;;;;;2254446;63;20236;-68
2022/05/08 07:48:39;;;;;;;7.15;2.00;;;10.70;92.90;;;;;;2238641;64;20150;-69
2022/05/08 07:51:15;;;;;;;14.02;2.35;;;10.60;93.00;;;;;;2236855;63;20170;-69
2022/05/08 07:53:52;;;;;;;4.53;1.92;;;10.90;93.20;;;;;;2237541;63;20215;-69
2022/05/08 07:56:29;;;;;;;11.25;2.40;;;10.70;93.30;;;;;;2238324;63;20178;-68
2022/05/08 07:59:08;;;;;;;10.35;2.70;;;10.50;93.20;;;;;;2234670;63;20656;-68
2022/05/08 08:02:07;;;;;;;6.25;2.60;;;10.60;93.20;;;;;;2237218;64;20646;-69
2022/05/08 08:04:44;;;;;;;9.00;2.13;;;10.50;93.00;;;;;;2238067;63;20389;-67
2022/05/08 08:07:22;;;;;;;6.20;2.42;;;10.60;93.20;;;;;;2238502;63;20162;-69
2022/05/08 08:09:58;;;;;;;8.07;2.40;;;10.80;93.20;;;;;;2238158;63;20189;-69
2022/05/08 08:12:36;;;;;;;7.32;1.90;;;10.90;93.00;;;;;;2238245;63;20194;-69
2022/05/08 08:15:16;;;;;;;7.28;2.20;;;11.30;92.40;;;;;;2238493;63;20174;-69
2022/05/08 08:17:52;;;;;;;5.35;1.88;;;11.70;92.00;;;;;;2238610;63;20303;-69
2022/05/08 08:20:30;;;;;;;5.78;2.65;;;11.80;91.60;;;;;;2238310;63;20193;-68
2022/05/08 08:23:10;;;;;;;7.88;1.70;;;12.00;91.20;;;;;;2236601;63;20533;-67
2022/05/08 08:25:51;;;;;;;5.72;1.90;;;12.30;91.00;;;;;;2236614;63;20223;-68
2022/05/08 08:28:27;;;;;;;6.78;2.05;;;12.50;90.40;;;;;;2236572;63;20293;-68
2022/05/08 08:31:09;;;;;;;7.88;2.53;;;12.50;90.20;;;;;;2237342;63;20610;-68
2022/05/08 08:33:46;;;;;;;8.88;1.92;;;12.50;89.60;;;;;;2236737;63;20197;-68
2022/05/08 08:36:22;;;;;;;5.10;2.03;;;12.50;89.40;;;;;;2237212;63;20186;-70
2022/05/08 08:38:59;;;;;;;8.18;2.10;;;12.50;88.90;;;;;;2236733;63;20185;-69
2022/05/08 08:41:42;;;;;;;12.32;2.33;;;12.40;88.20;;;;;;2237938;63;20159;-68
2022/05/08 08:50:12;;;;;;;9.38;2.38;;;12.10;88.70;;;;;;2250344;63;20189;-71
2022/05/08 08:52:49;;;;;;;7.47;2.00;;;12.10;88.70;;;;;;2252158;63;20202;-69
2022/05/08 08:55:31;;;;;;;5.47;2.25;;;12.00;88.50;;;;;;2254141;63;20184;-69
2022/05/08 08:58:10;;;;;;;7.45;2.60;;;12.00;88.60;;;;;;2254230;63;20181;-69
2022/05/08 09:00:51;;;;;;;7.47;2.22;;;11.90;89.00;;;;;;2253097;63;20267;-68
2022/05/08 09:03:30;;;;;;;6.53;2.00;;;12.10;88.20;;;;;;2251904;63;20210;-68
2022/05/08 09:06:10;;;;;;;5.90;2.22;;;12.00;87.90;;;;;;2254230;63;20310;-68
2022/05/08 09:08:48;;;;;;;7.68;2.15;;;12.00;87.40;;;;;;2253407;63;20208;-70
2022/05/08 09:11:33;;;;;;;7.70;2.38;;;12.00;87.40;;;;;;2253986;63;20216;-68
2022/05/08 09:14:10;;;;;;;7.90;2.45;;;12.10;87.40;;;;;;2254225;63;20193;-69
2022/05/08 09:16:56;;;;;;;12.73;3.65;;;12.20;87.60;;;;;;2254180;63;20208;-69
2022/05/08 09:19:41;;;;;;;;;;;12.40;87.50;;;;;;2254585;63;20193;-69
2022/05/08 09:22:22;;;;;;;12.02;2.65;;;12.50;87.10;;;;;;2254204;63;20096;-69
2022/05/08 09:25:05;;;;;;;8.15;2.40;;;12.60;87.10;;;;;;2254149;63;20180;-70
2022/05/08 09:27:42;;;;;;;8.77;2.58;;;12.80;86.70;;;;;;2253275;63;20173;-69
2022/05/08 09:30:19;;;;;;;12.65;2.90;;;13.00;86.10;;;;;;2252213;63;20186;-68
2022/05/08 09:32:56;;;;;;;8.85;2.78;;;13.00;85.40;;;;;;2246134;63;20582;-67
2022/05/08 09:35:44;;;;;;;7.15;2.40;;;13.40;85.30;;;;;;2250608;63;20201;-69
2022/05/08 09:38:21;;;;;;;7.30;2.10;;;13.00;84.20;;;;;;2252415;63;20224;-68
2022/05/08 09:41:17;;;;;;;11.18;2.47;;;13.10;84.10;;;;;;2253394;63;20299;-68
2022/05/08 09:44:09;;;;;;;9.23;2.58;;;13.10;82.80;;;;;;2253348;63;20169;-69
2022/05/08 09:46:49;;;;;;;6.13;2.33;;;13.10;82.40;;;;;;2249662;63;20279;-69
2022/05/08 09:49:26;;;;;;;7.07;2.58;;;13.20;82.20;;;;;;2253961;63;20329;-69
2022/05/08 09:52:03;;;;;;;9.52;2.58;;;13.10;81.80;;;;;;2254455;63;20214;-70
2022/05/08 09:54:40;;;;;;;8.13;2.22;;;13.10;82.40;;;;;;2255030;63;20333;-69
2022/05/08 09:57:23;;;;;;;9.00;2.20;;;13.20;81.80;;;;;;2254653;63;20217;-69
2022/05/08 10:00:05;;;;;;;10.70;2.88;;;13.20;81.40;;;;;;2254813;63;20646;-69
2022/05/08 10:02:43;;;;;;;9.30;2.67;;;13.30;82.00;;;;;;2250834;63;20190;-70
2022/05/08 10:05:21;;;;;;;11.82;2.38;;;13.60;82.20;;;;;;2249642;63;20258;-68
2022/05/08 10:08:05;;;;;;;8.25;2.20;;;13.50;82.30;;;;;;2252216;63;20156;-68
2022/05/08 10:14:07;;;;;;;5.72;2.30;;;14.00;81.00;;;;;;2254245;63;20192;-69
2022/05/08 10:17:04;;;;;;;5.20;1.98;;;14.00;80.00;;;;;;2254643;63;20190;-69
2022/05/08 10:19:46;;;;;;;5.20;1.83;;;13.90;79.70;;;;;;2254665;63;20219;-69
2022/05/08 10:22:24;;;;;;;15.35;2.38;;;13.90;80.00;;;;;;2255115;63;20164;-69
2022/05/08 10:25:16;;;;;;;8.32;2.72;;;14.00;79.20;;;;;;2254940;63;20593;-68
2022/05/08 10:28:06;;;;;;;7.75;2.53;;;14.00;78.10;;;;;;2254494;63;20268;-70
2022/05/08 10:30:44;;;;;;;7.50;2.90;;;14.10;78.40;;;;;;2254884;63;20149;-70
2022/05/08 10:33:20;;;;;;;6.15;2.05;;;14.20;78.90;;;;;;2252923;63;20221;-70
2022/05/08 10:36:07;;;;;;;9.15;2.15;;;14.30;79.00;;;;;;2254683;63;20231;-70
2022/05/08 10:38:44;;;;;;;7.88;2.55;;;14.40;78.20;;;;;;2254694;63;20228;-72
2022/05/08 10:41:42;;;;;;;8.38;2.60;;;14.40;77.50;;;;;;2254801;63;20587;-70
2022/05/08 10:44:40;;;;;;;6.40;1.98;;;14.50;76.60;;;;;;2254830;63;20317;-70
2022/05/08 10:47:36;;;;;;;9.45;2.17;;;14.70;76.00;;;;;;2249536;63;20197;-68
2022/05/08 10:50:15;;;;;;;7.68;2.13;;;14.90;75.80;;;;;;2254806;63;20186;-68
2022/05/08 10:52:53;;;;;;;8.75;2.67;;;15.70;75.40;;;;;;2254873;63;20192;-69
2022/05/08 10:55:33;;;;;;;8.18;2.10;;;16.70;73.10;;;;;;2254801;63;20236;-69
2022/05/08 10:58:12;;;;;;;4.72;1.75;;;17.80;70.20;;;;;;2254905;63;20180;-70
2022/05/08 11:00:54;;;;;;;5.88;2.10;;;18.60;67.50;;;;;;2254805;63;20168;-70
2022/05/08 11:03:35;;;;;;;6.30;2.22;;;19.30;65.20;;;;;;2251701;63;20299;-71
2022/05/08 11:06:21;;;;;;;5.40;2.05;;;19.80;63.10;;;;;;2249583;63;20585;-72
2022/05/08 11:09:01;;;;;;;5.80;2.28;;;20.50;61.40;;;;;;2254717;63;20267;-71
2022/05/08 11:11:47;;;;;;;7.43;2.80;;;21.00;59.10;;;;;;2254863;63;20184;-70
2022/05/08 11:14:28;;;;;;;6.18;2.53;;;21.40;57.70;;;;;;2254763;63;20289;-70
2022/05/08 11:17:21;;;;;;;5.47;2.05;;;21.90;56.70;;;;;;2254845;63;20195;-69
2022/05/08 11:19:58;;;;;;;6.03;2.25;;;22.50;55.90;;;;;;2254736;63;20237;-71
2022/05/08 11:22:36;;;;;;;5.30;1.73;;;22.90;55.20;;;;;;2254390;63;20449;-71
2022/05/08 11:25:15;;;;;;;3.97;1.80;;;23.50;53.50;;;;;;2254734;63;20182;-70
2022/05/08 11:27:52;;;;;;;5.57;2.40;;;24.10;51.40;;;;;;2249128;63;20184;-70
2022/05/08 11:30:37;;;;;;;7.10;2.47;;;24.70;51.20;;;;;;2254785;63;20234;-71
2022/05/08 11:36:12;;;;;;;4.75;2.17;;;25.40;48.80;;;;;;2246976;63;20169;-70
2022/05/08 20:39:38;;;;;;;10.45;4.10;;;10.10;81.30;;;;;;2380713;52;20268;-78
2022/05/08 21:54:41;;;;;;;13.40;4.07;;;8.50;93.70;;;;;;2457992;52;20309;-74
2022/05/08 21:57:34;;;;;;;13.88;4.90;;;8.50;94.00;;;;;;2222017;64;20613;-71
2022/05/08 22:00:25;;;;;;;14.32;4.15;;;8.50;94.30;;;;;;2217902;64;20201;-71
2022/05/08 22:06:57;;;;;;;11.52;4.15;;;8.40;94.80;;;;;;2219111;64;20378;-70
2022/05/08 22:09:38;;;;;;;8.48;3.75;;;8.40;94.90;;;;;;2221314;64;20190;-70
2022/05/08 22:12:18;;;;;;;21.08;4.93;;;8.40;95.00;;;;;;2216571;64;20167;-71
2022/05/08 22:15:04;;;;;;;9.25;4.78;;;8.30;95.20;;;;;;2222492;64;20319;-70
2022/05/08 22:17:45;;;;;;;13.48;4.50;;;8.30;95.70;;;;;;2222348;64;20258;-71
2022/05/08 22:20:24;;;;;;;10.23;4.47;;;8.30;95.80;;;;;;2218465;64;20249;-71
2022/05/08 22:23:02;;;;;;;15.07;5.47;;;8.30;95.90;;;;;;2222565;64;20262;-70
2022/05/08 22:25:52;;;;;;;12.07;5.13;;;8.30;96.20;;;;;;2222495;64;20671;-70
2022/05/08 22:28:31;;;;;;;9.63;3.97;;;8.30;96.50;;;;;;2222576;64;20576;-70
2022/05/08 22:31:09;;;;;;;12.98;5.43;;;8.30;96.50;;;;;;2222448;64;20217;-71
2022/05/08 22:33:48;;;;;;;10.95;4.85;;;8.20;96.80;;;;;;2222362;64;20279;-70
2022/05/08 22:36:25;;;;;;;11.00;6.35;;;8.20;96.90;;;;;;2222245;64;20172;-70
2022/05/08 22:39:10;;;;;;;15.15;4.85;;;8.20;97.40;;;;;;2222421;64;20160;-70
2022/05/08 22:41:47;;;;;;;10.02;4.28;;;8.20;97.60;;;;;;2222198;64;20189;-71
2022/05/08 22:44:25;;;;;;;16.40;5.43;;;8.20;97.60;;;;;;2222185;64;20314;-70
2022/05/08 22:47:12;;;;;;;13.63;5.10;;;8.10;97.80;;;;;;2222289;64;20171;-71
2022/05/08 22:49:51;;;;;;;14.82;5.07;;;8.10;97.80;;;;;;2222104;64;20167;-70
2022/05/08 22:52:28;;;;;;;12.82;4.82;;;8.10;98.00;;;;;;2222262;64;20272;-70
2022/05/08 22:55:06;;;;;;;16.67;4.80;;;8.00;98.10;;;;;;2220355;64;20244;-71
2022/05/08 22:57:42;;;;;;;11.55;4.57;;;8.00;98.30;;;;;;2220613;64;20533;-70
2022/05/08 23:00:20;;;;;;;13.75;4.22;;;8.00;98.50;;;;;;2215819;64;20179;-70
2022/05/08 23:02:58;;;;;;;15.18;5.35;;;7.90;98.70;;;;;;2222071;64;20171;-70
2022/05/08 23:05:39;;;;;;;12.68;4.35;;;7.90;98.90;;;;;;2216361;64;20601;-69
2022/05/08 23:08:19;;;;;;;21.27;4.88;;;7.90;99.00;;;;;;2221343;64;20193;-70
2022/05/08 23:11:00;;;;;;;12.55;4.45;;;7.90;99.20;;;;;;2216923;64;20167;-71
2022/05/08 23:13:41;;;;;;;14.27;4.55;;;7.90;99.50;;;;;;2219640;64;20355;-71
2022/05/08 23:16:21;;;;;;;12.50;4.95;;;7.80;99.40;;;;;;2217835;64;20167;-70
2022/05/08 23:19:00;;;;;;;17.67;4.15;;;7.80;99.60;;;;;;2223851;64;20212;-71
2022/05/08 23:21:37;;;;;;;16.58;5.97;;;7.80;99.70;;;;;;2223284;64;20183;-70
2022/05/08 23:24:14;;;;;;;13.65;4.40;;;7.80;99.90;;;;;;2208125;65;20381;-70
2022/05/08 23:26:52;;;;;;;12.07;4.82;;;7.70;99.90;;;;;;2215838;64;20176;-69
2022/05/08 23:29:36;;;;;;;10.77;5.07;;;7.70;99.90;;;;;;2208123;65;20194;-70
2022/05/08 23:32:16;;;;;;;9.98;3.80;;;7.70;99.90;;;;;;2216728;64;20168;-71
2022/05/08 23:34:57;;;;;;;13.23;4.97;;;7.60;99.90;;;;;;2218979;64;20186;-71
2022/05/08 23:37:37;;;;;;;13.45;5.05;;;7.60;99.90;;;;;;2223282;64;20577;-70
2022/05/08 23:40:19;;;;;;;17.75;4.70;;;7.60;99.90;;;;;;2221552;64;20188;-71
2022/05/08 23:42:56;;;;;;;19.92;4.90;;;7.50;99.90;;;;;;2215733;64;20576;-71
2022/05/08 23:45:41;;;;;;;11.02;4.45;;;7.50;99.90;;;;;;2215899;64;20200;-70
2022/05/08 23:48:21;;;;;;;15.80;4.88;;;7.50;99.90;;;;;;2215747;64;20180;-70
2022/05/08 23:53:56;;;;;;;12.23;4.72;;;7.50;99.90;;;;;;2216816;64;20236;-69
2022/05/08 23:56:36;;;;;;;10.38;4.72;;;7.40;99.90;;;;;;2217191;64;20228;-71
2022/05/08 23:59:15;;;;;;;15.20;5.28;;;7.40;99.90;;;;;;2222644;64;20283;-70
